»·PEaware :: NKS319 KCOS-KGCN

NKS319 :: KCOS-KGCN

FLIGHT INFORMATION

Flight Status: Arrived
Operator:
Spirit Airlines
More flights by this operator :: More flights under this callsign
Pilot: Anonymous 5456 (5456)
Aircraft: AIRBUS A319
(A319)
More flights by this aircraft type
Origin: KCOS City Of Colorado Springs Mun
United States
Destination: KGCN Grand Canyon Natl Park
United States
More flights between these airports :: More routes between these airports
Route: +COS6 PUB J64 TBC GCN
File this flight plan on PilotEdge
Remarks:
Altitude:
(Current/Filed)
36,000ft
Speed:
(Current/Filed)
450kts
Departed: 11-Feb-19 10:35 AM
Arrived: 11-Feb-19 11:40 AM
Distance/Time
Traveled:
394nm/1:05
Distance/Time
To Go:
Arrived

Flight Plot

Page will automatically refresh every two minutes.

Flight plan parsing failed; only flown route is shown


Map Options




Map Legend


Flown Route
Filed Route
Departure Airport
Arrival Airport
Navaid (VOR, NDB)
Fix

Horizontal Profiles

Position Reports

Time Latitude Longitude Heading Altitude Ground
Speed
11-Feb-19 10:13 38.799400 -104.701556 125 6209ft 0kts
11-Feb-19 10:14 38.799400 -104.701556 125 6209ft 0kts
11-Feb-19 10:15 38.799400 -104.701556 125 6209ft 0kts
11-Feb-19 10:16 38.799400 -104.701556 125 6209ft 0kts
11-Feb-19 10:17 38.799400 -104.701556 125 6209ft 0kts
11-Feb-19 10:18 38.799400 -104.701556 125 6209ft 0kts
11-Feb-19 10:19 38.799400 -104.701556 125 6209ft 0kts
11-Feb-19 10:20 38.799400 -104.701556 125 6209ft 0kts
11-Feb-19 10:21 38.799400 -104.701556 125 6209ft 0kts
11-Feb-19 10:22 38.799517 -104.701763 117 6209ft 2kts
11-Feb-19 10:23 38.799318 -104.702403 18 6209ft 2kts
11-Feb-19 10:24 38.799146 -104.702428 358 6209ft 0kts
11-Feb-19 10:25 38.799146 -104.702428 358 6209ft 0kts
11-Feb-19 10:26 38.800651 -104.702172 56 6209ft 10kts
11-Feb-19 10:27 38.802796 -104.699745 91 6209ft 13kts
11-Feb-19 10:28 38.802787 -104.693982 92 6209ft 16kts
11-Feb-19 10:29 38.802795 -104.688695 90 6209ft 14kts
11-Feb-19 10:30 38.805699 -104.687872 1 6209ft 12kts
11-Feb-19 10:31 38.809928 -104.687854 0 6209ft 17kts
11-Feb-19 10:32 38.815185 -104.687858 0 6209ft 12kts
11-Feb-19 10:33 38.815803 -104.685865 151 6209ft 9kts
11-Feb-19 10:34 38.794211 -104.685762 181 6211ft 181kts
11-Feb-19 10:35 38.743316 -104.685526 181 8282ft 198kts
11-Feb-19 10:36 38.678544 -104.685808 181 9746ft 275kts
11-Feb-19 10:37 38.595308 -104.686084 181 12055ft 321kts
11-Feb-19 10:38 38.504272 -104.686347 181 14984ft 335kts
11-Feb-19 10:39 38.409552 -104.686617 181 16360ft 342kts
11-Feb-19 10:40 38.316128 -104.709258 197 17212ft 347kts
11-Feb-19 10:41 38.222251 -104.744221 197 19621ft 358kts
11-Feb-19 10:42 38.126166 -104.783004 213 21685ft 369kts
11-Feb-19 10:43 38.073801 -104.895602 244 23033ft 376kts
11-Feb-19 10:44 38.027298 -105.015563 244 23567ft 381kts
11-Feb-19 10:45 37.979478 -105.136601 244 25324ft 390kts
11-Feb-19 10:46 37.929959 -105.261373 244 26941ft 399kts
11-Feb-19 10:47 37.879067 -105.388534 244 28435ft 408kts
11-Feb-19 10:48 37.826954 -105.517862 244 29743ft 417kts
11-Feb-19 10:49 37.773813 -105.649868 244 30914ft 426kts
11-Feb-19 10:50 37.719286 -105.785279 244 32000ft 435kts
11-Feb-19 10:51 37.664017 -105.921606 244 33244ft 436kts
11-Feb-19 10:52 37.608740 -106.057301 244 34508ft 434kts
11-Feb-19 10:53 37.553480 -106.192400 244 35676ft 433kts
11-Feb-19 10:54 37.498068 -106.327264 244 36212ft 432kts
11-Feb-19 10:56 37.442701 -106.461447 244 36219ft 432kts
11-Feb-19 10:57 37.387071 -106.595721 244 36224ft 432kts
11-Feb-19 10:58 37.330406 -106.732211 243 36225ft 451kts
11-Feb-19 10:59 37.271816 -106.872518 244 36225ft 453kts
11-Feb-19 11:00 37.213207 -107.012099 244 36225ft 452kts
11-Feb-19 11:01 37.154474 -107.151503 244 36225ft 451kts
11-Feb-19 11:02 37.095648 -107.290445 245 36225ft 450kts
11-Feb-19 11:03 37.036962 -107.428377 245 36218ft 448kts
11-Feb-19 11:04 36.978298 -107.565785 246 36200ft 445kts
11-Feb-19 11:05 36.920136 -107.701662 246 36189ft 444kts
11-Feb-19 11:06 36.861638 -107.837065 246 36188ft 444kts
11-Feb-19 11:07 36.827179 -107.982264 261 36180ft 435kts
11-Feb-19 11:08 36.799171 -108.129307 260 36167ft 435kts
11-Feb-19 11:09 36.770808 -108.276680 260 36163ft 436kts
11-Feb-19 11:10 36.742291 -108.423715 260 36164ft 435kts
11-Feb-19 11:11 36.713612 -108.570555 260 36164ft 435kts
11-Feb-19 11:12 36.685240 -108.714917 260 36161ft 436kts
11-Feb-19 11:13 36.656281 -108.861363 260 36164ft 435kts
11-Feb-19 11:13 36.632192 -108.983554 260 36164ft 435kts
11-Feb-19 11:15 36.598651 -109.152472 260 36173ft 427kts
11-Feb-19 11:16 36.570185 -109.295010 260 36188ft 422kts
11-Feb-19 11:16 36.545863 -109.412926 260 36204ft 423kts
11-Feb-19 11:17 36.516787 -109.552543 260 35786ft 417kts
11-Feb-19 11:18 36.487583 -109.692680 260 36200ft 423kts
11-Feb-19 11:20 36.452830 -109.858303 260 36215ft 423kts
11-Feb-19 11:20 36.427886 -109.976297 260 36227ft 423kts
11-Feb-19 11:21 36.397921 -110.117239 260 36226ft 423kts
11-Feb-19 11:22 36.367624 -110.258877 260 36209ft 423kts
11-Feb-19 11:23 36.337388 -110.399157 260 35536ft 411kts
11-Feb-19 11:24 36.309328 -110.528630 260 34259ft 400kts
11-Feb-19 11:25 36.280093 -110.663586 258 31174ft 411kts
11-Feb-19 11:26 36.249824 -110.802137 256 27729ft 422kts
11-Feb-19 11:27 36.218488 -110.944310 254 24178ft 437kts
11-Feb-19 11:28 36.186172 -111.089587 254 22610ft 439kts
11-Feb-19 11:29 36.154205 -111.232641 253 19151ft 424kts
11-Feb-19 11:30 36.123126 -111.370822 253 15970ft 409kts
11-Feb-19 11:31 36.092957 -111.504233 253 13009ft 395kts
11-Feb-19 11:32 36.063770 -111.632529 253 11072ft 386kts
11-Feb-19 11:33 36.037067 -111.750577 253 11045ft 318kts
11-Feb-19 11:34 36.014745 -111.848813 253 10288ft 281kts
11-Feb-19 11:35 35.993801 -111.939231 253 9343ft 256kts
11-Feb-19 11:36 35.985493 -112.016298 287 9077ft 205kts
11-Feb-19 11:37 36.002986 -112.080389 271 8371ft 189kts
11-Feb-19 11:38 35.974257 -112.123654 221 7094ft 156kts
11-Feb-19 11:39 35.950424 -112.149048 221 6613ft 38kts
11-Feb-19 11:40 35.947472 -112.150405 38 6613ft 12kts
11-Feb-19 11:41 35.951827 -112.145750 40 6613ft 23kts
11-Feb-19 11:42 35.955241 -112.142197 42 6613ft 10kts
11-Feb-19 11:43 35.955258 -112.141401 129 6613ft 0kts
11-Feb-19 11:44 35.955258 -112.141401 129 6613ft 0kts

Navigation Log

Ident Type
Flight plan parsing failed, navigation log unavailable